Time;durP1;ratioP1;P1;durP2;ratioP2;P2;SDS_P1;SDS_P2;PMS_P1;PMS_P2;Temp;Humidity;BMP_temperature;BMP_pressure;BME280_temperature;BME280_humidity;BME280_pressure;Samples;Min_cycle;Max_cycle;Signal;HPM_P1;HPM_P2
2021/10/14 00:00:32;;;;;;;8.00;5.53;;;;;;;5.41;100.00;99421.81;5052132;28;20033;-58
2021/10/14 00:02:58;;;;;;;8.10;4.40;;;;;;;5.46;100.00;99417.66;5053227;28;20055;-58
2021/10/14 00:05:24;;;;;;;6.27;4.70;;;;;;;5.50;100.00;99432.13;5046143;28;20017;-59
2021/10/14 00:07:49;;;;;;;5.00;4.10;;;;;;;5.50;100.00;99430.44;5053508;28;20060;-59
2021/10/14 00:10:15;;;;;;;6.27;4.80;;;;;;;5.45;100.00;99426.97;5049584;28;20034;-58
2021/10/14 00:12:40;;;;;;;5.33;4.60;;;;;;;5.40;100.00;99437.88;5041698;28;20025;-59
2021/10/14 00:15:07;;;;;;;7.03;5.20;;;;;;;5.35;100.00;99429.34;5045769;28;20128;-58
2021/10/14 00:17:32;;;;;;;6.10;4.97;;;;;;;5.27;100.00;99426.69;5037249;28;20033;-58
2021/10/14 00:19:58;;;;;;;7.07;5.40;;;;;;;5.33;100.00;99429.34;5042172;28;20033;-59
2021/10/14 00:22:23;;;;;;;6.17;4.87;;;;;;;5.39;100.00;99426.00;5039678;28;20403;-59
2021/10/14 00:24:48;;;;;;;6.53;4.47;;;;;;;5.44;100.00;99426.94;5044786;28;20112;-59
2021/10/14 00:27:14;;;;;;;5.93;4.60;;;;;;;5.42;100.00;99432.00;5051021;28;20674;-60
2021/10/14 00:29:39;;;;;;;9.50;5.13;;;;;;;5.42;100.00;99438.78;5050181;28;20483;-60
2021/10/14 00:32:05;;;;;;;5.97;4.47;;;;;;;5.48;100.00;99433.75;5051428;28;20040;-60
2021/10/14 00:34:30;;;;;;;8.83;6.27;;;;;;;5.47;100.00;99425.28;5048042;28;20029;-60
2021/10/14 00:36:56;;;;;;;7.57;4.00;;;;;;;5.51;100.00;99431.28;5051870;28;20082;-59
2021/10/14 00:39:21;;;;;;;6.87;4.17;;;;;;;5.50;100.00;99432.97;5051966;28;20394;-60
2021/10/14 00:41:47;;;;;;;7.50;5.50;;;;;;;5.48;100.00;99426.13;5048350;28;20075;-60
2021/10/14 00:44:12;;;;;;;5.10;4.37;;;;;;;5.48;100.00;99421.91;5045676;28;20085;-60
2021/10/14 00:46:47;;;;;;;8.30;5.20;;;;;;;5.50;100.00;99425.34;5050799;28;20022;-60
2021/10/14 00:49:13;;;;;;;;;;;;;;;5.51;100.00;99429.59;5050222;28;20334;-60
2021/10/14 00:51:38;;;;;;;5.40;4.60;;;;;;;5.40;100.00;99428.59;5046867;28;20291;-59
2021/10/14 00:54:03;;;;;;;6.90;5.13;;;;;;;5.35;100.00;99430.19;5050703;28;20029;-59
2021/10/14 00:56:29;;;;;;;9.77;5.07;;;;;;;5.38;100.00;99421.78;5043458;28;20502;-59
2021/10/14 00:58:54;;;;;;;5.43;4.83;;;;;;;5.30;100.00;99423.34;5037401;28;20079;-58
2021/10/14 01:01:20;;;;;;;7.07;5.23;;;;;;;5.33;100.00;99424.25;5042788;28;20020;-58
2021/10/14 01:03:45;;;;;;;6.53;5.33;;;;;;;5.37;100.00;99423.47;5050031;28;20033;-58
2021/10/14 01:06:10;;;;;;;10.07;6.43;;;;;;;5.33;100.00;99419.16;5044629;28;20031;-55
2021/10/14 01:08:36;;;;;;;7.47;5.70;;;;;;;5.30;100.00;99416.59;5050243;28;20033;-57
2021/10/14 01:11:01;;;;;;;11.47;5.47;;;;;;;5.30;100.00;99420.81;5046160;28;20029;-58
2021/10/14 01:13:27;;;;;;;9.13;5.03;;;;;;;5.29;100.00;99414.88;5049346;28;20496;-56
2021/10/14 01:15:52;;;;;;;9.33;6.17;;;;;;;5.28;100.00;99408.06;5048912;28;20041;-57
2021/10/14 01:18:18;;;;;;;8.10;6.00;;;;;;;5.30;100.00;99418.28;5049172;28;20028;-57
2021/10/14 01:20:43;;;;;;;9.43;5.53;;;;;;;5.27;100.00;99411.44;5050588;28;20108;-59
2021/10/14 01:23:10;;;;;;;7.87;5.93;;;;;;;5.28;100.00;99418.25;5053047;28;20111;-58
2021/10/14 01:25:35;;;;;;;9.50;6.03;;;;;;;5.28;100.00;99407.22;5048314;28;20020;-58
2021/10/14 01:28:01;;;;;;;7.57;6.73;;;;;;;5.32;100.00;99412.38;5045678;28;20469;-55
2021/10/14 01:30:26;;;;;;;10.10;7.07;;;;;;;5.43;100.00;99410.81;5043102;28;20052;-56
2021/10/14 01:32:52;;;;;;;8.93;6.87;;;;;;;5.53;100.00;99411.81;5045084;28;20562;-56
2021/10/14 01:35:18;;;;;;;9.53;7.00;;;;;;;5.57;100.00;99412.69;5042612;28;20033;-56
2021/10/14 01:37:44;;;;;;;15.53;8.67;;;;;;;5.60;100.00;99412.75;5036397;28;20553;-57
2021/10/14 01:40:10;;;;;;;10.27;7.43;;;;;;;5.63;100.00;99408.56;5040747;28;20030;-58
2021/10/14 01:42:36;;;;;;;12.40;7.63;;;;;;;5.59;100.00;99411.91;5043271;28;20454;-57
2021/10/14 01:45:03;;;;;;;12.30;8.50;;;;;;;5.61;100.00;99414.44;5043825;28;20079;-58
2021/10/14 01:47:30;;;;;;;11.33;8.10;;;;;;;5.55;100.00;99419.47;5043839;28;20033;-58
2021/10/14 01:49:57;;;;;;;9.50;8.03;;;;;;;5.52;100.00;99413.50;5046379;28;20365;-58
2021/10/14 01:52:22;;;;;;;12.40;8.30;;;;;;;5.46;100.00;99413.41;5045867;28;20038;-57
2021/10/14 01:54:48;;;;;;;10.60;7.70;;;;;;;5.41;100.00;99415.03;5049789;28;20395;-57
2021/10/14 01:57:14;;;;;;;10.13;8.10;;;;;;;5.35;100.00;99422.56;5051157;28;20029;-55
2021/10/14 01:59:39;;;;;;;10.63;7.83;;;;;;;5.28;100.00;99413.16;5049553;28;20026;-58
2021/10/14 02:02:04;;;;;;;12.47;8.23;;;;;;;5.20;100.00;99414.72;5050629;28;20472;-57
2021/10/14 02:04:30;;;;;;;11.80;7.83;;;;;;;5.12;100.00;99416.31;5048578;28;20030;-56
2021/10/14 02:06:55;;;;;;;11.87;7.83;;;;;;;5.12;100.00;99415.44;5043487;28;20066;-57
2021/10/14 02:09:21;;;;;;;11.07;7.57;;;;;;;5.11;100.00;99413.72;5045861;28;20073;-54
2021/10/14 02:11:46;;;;;;;11.43;8.73;;;;;;;5.02;100.00;99422.94;5044126;28;20124;-58
2021/10/14 02:14:11;;;;;;;12.47;8.13;;;;;;;5.01;100.00;99417.81;5036845;28;20499;-57
2021/10/14 02:16:37;;;;;;;11.43;8.90;;;;;;;4.99;100.00;99417.81;5041188;28;20033;-57
2021/10/14 02:19:02;;;;;;;11.90;8.30;;;;;;;5.05;100.00;99414.47;5043538;28;20032;-54
2021/10/14 02:21:28;;;;;;;11.33;9.60;;;;;;;4.98;100.00;99418.63;5042906;28;20032;-58
2021/10/14 02:23:53;;;;;;;12.30;8.87;;;;;;;4.96;100.00;99420.31;5041531;28;20551;-57
2021/10/14 02:26:18;;;;;;;10.73;8.37;;;;;;;4.96;100.00;99419.44;5041048;28;20026;-56
2021/10/14 02:28:44;;;;;;;12.50;8.53;;;;;;;4.96;100.00;99416.91;5052180;28;20029;-58
2021/10/14 02:31:09;;;;;;;10.13;7.80;;;;;;;4.94;100.00;99424.50;5047899;28;20033;-53
2021/10/14 02:33:35;;;;;;;11.87;7.93;;;;;;;4.95;100.00;99426.22;5048723;28;20067;-54
2021/10/14 02:36:00;;;;;;;13.90;8.17;;;;;;;4.92;100.00;99425.31;5048214;28;20365;-57
2021/10/14 02:38:26;;;;;;;12.80;9.97;;;;;;;4.90;100.00;99424.41;5048017;28;20051;-57
2021/10/14 02:40:51;;;;;;;9.97;7.87;;;;;;;4.91;100.00;99415.97;5049568;28;20063;-57
2021/10/14 02:43:16;;;;;;;12.90;8.37;;;;;;;4.93;100.00;99422.78;5044108;28;20045;-58
2021/10/14 02:45:42;;;;;;;12.90;8.43;;;;;;;4.88;100.00;99423.56;5047507;28;20094;-55
2021/10/14 02:48:07;;;;;;;12.10;8.93;;;;;;;4.96;100.00;99415.22;5043497;28;20030;-55
2021/10/14 02:50:32;;;;;;;9.93;7.87;;;;;;;4.94;100.00;99421.94;5042478;28;20052;-56
2021/10/14 02:52:58;;;;;;;13.47;10.17;;;;;;;4.96;100.00;99422.00;5040731;28;20021;-58
2021/10/14 02:55:23;;;;;;;15.50;9.37;;;;;;;4.95;100.00;99425.34;5038332;28;20034;-58
2021/10/14 02:57:49;;;;;;;12.10;8.60;;;;;;;4.95;100.00;99431.28;5038059;28;20037;-58
2021/10/14 03:00:14;;;;;;;10.57;8.07;;;;;;;4.98;100.00;99427.94;5040119;28;20078;-57
2021/10/14 03:02:40;;;;;;;9.70;7.00;;;;;;;5.03;100.00;99418.69;5047555;28;20174;-58
2021/10/14 03:05:05;;;;;;;10.80;7.97;;;;;;;5.07;100.00;99434.03;5045593;28;20033;-56
2021/10/14 03:07:31;;;;;;;10.60;7.43;;;;;;;5.06;100.00;99421.28;5050741;28;20546;-54
2021/10/14 03:09:56;;;;;;;10.27;7.40;;;;;;;5.14;100.00;99434.97;5048494;28;20029;-58
2021/10/14 03:12:22;;;;;;;12.30;8.07;;;;;;;5.16;100.00;99433.31;5043175;28;20064;-56
2021/10/14 03:14:47;;;;;;;11.30;8.60;;;;;;;5.13;100.00;99418.03;5047328;28;20069;-54
2021/10/14 03:17:12;;;;;;;11.80;8.00;;;;;;;5.19;100.00;99429.94;5050781;28;20119;-57
2021/10/14 03:19:38;;;;;;;8.83;6.67;;;;;;;5.29;100.00;99427.59;5051331;28;20054;-54
2021/10/14 03:22:04;;;;;;;9.93;8.27;;;;;;;5.32;100.00;99435.25;5047816;28;20021;-54
2021/10/14 03:24:29;;;;;;;12.00;8.20;;;;;;;5.31;100.00;99435.22;5047796;28;20971;-54
2021/10/14 03:26:55;;;;;;;10.37;8.50;;;;;;;5.27;100.00;99436.84;5050510;28;20024;-53
2021/10/14 03:29:20;;;;;;;11.03;7.73;;;;;;;5.31;100.00;99437.75;5042633;28;20033;-55
2021/10/14 03:31:46;;;;;;;11.27;7.73;;;;;;;5.34;100.00;99435.28;5036703;28;20109;-59
2021/10/14 03:34:11;;;;;;;9.33;7.33;;;;;;;5.33;100.00;99448.81;5038213;28;20755;-58
2021/10/14 03:36:37;;;;;;;11.30;7.57;;;;;;;5.33;100.00;99436.09;5041334;28;20527;-60
2021/10/14 03:39:02;;;;;;;10.37;7.50;;;;;;;5.27;100.00;99436.84;5041087;28;20028;-59
2021/10/14 03:41:28;;;;;;;14.43;7.97;;;;;;;5.25;100.00;99436.00;5039887;28;20091;-60
2021/10/14 03:43:53;;;;;;;12.10;7.43;;;;;;;5.25;100.00;99438.53;5046020;28;20103;-60
2021/10/14 03:46:19;;;;;;;12.37;8.30;;;;;;;5.25;100.00;99447.84;5047330;28;20040;-60
2021/10/14 03:48:44;;;;;;;10.77;7.07;;;;;;;5.23;100.00;99440.19;5044684;28;20043;-59
2021/10/14 03:51:09;;;;;;;11.93;7.93;;;;;;;5.25;100.00;99443.63;5047214;28;20029;-60
2021/10/14 03:53:35;;;;;;;9.43;6.93;;;;;;;5.22;100.00;99441.00;5053471;28;20032;-59
2021/10/14 03:56:00;;;;;;;10.47;7.90;;;;;;;5.25;100.00;99438.53;5053898;28;20361;-58
2021/10/14 03:58:26;;;;;;;10.03;7.30;;;;;;;5.24;100.00;99438.50;5046806;28;20086;-60
2021/10/14 04:00:51;;;;;;;11.23;7.93;;;;;;;5.26;100.00;99430.06;5051735;28;20525;-58
2021/10/14 04:03:17;;;;;;;9.97;7.40;;;;;;;5.27;100.00;99431.78;5046503;28;20020;-57
2021/10/14 04:05:42;;;;;;;10.90;7.40;;;;;;;5.28;100.00;99435.16;5052369;28;20036;-58
2021/10/14 04:08:08;;;;;;;9.53;7.53;;;;;;;5.29;100.00;99427.59;5044419;28;20029;-57
2021/10/14 04:10:33;;;;;;;10.20;8.07;;;;;;;5.34;100.00;99432.75;5046270;28;20021;-60
2021/10/14 04:12:58;;;;;;;11.73;7.87;;;;;;;5.31;100.00;99440.28;5040360;28;20033;-58
2021/10/14 04:15:24;;;;;;;10.83;7.50;;;;;;;5.28;100.00;99428.41;5041088;28;20040;-58
2021/10/14 04:17:49;;;;;;;12.03;8.33;;;;;;;5.28;100.00;99433.50;5044256;28;20033;-60
2021/10/14 04:20:15;;;;;;;14.80;10.33;;;;;;;5.30;100.00;99444.56;5049881;28;20477;-60
2021/10/14 04:22:40;;;;;;;10.70;7.80;;;;;;;5.31;100.00;99443.69;5045890;28;20064;-61
2021/10/14 04:25:06;;;;;;;11.83;7.83;;;;;;;5.31;100.00;99445.38;5048956;28;20082;-61
2021/10/14 04:27:32;;;;;;;10.07;6.87;;;;;;;5.26;100.00;99444.47;5052267;28;20039;-61
2021/10/14 04:29:57;;;;;;;9.83;7.40;;;;;;;5.20;100.00;99447.78;5046893;28;20037;-59
2021/10/14 04:32:22;;;;;;;9.37;7.87;;;;;;;5.21;100.00;99452.03;5053386;28;20025;-61
2021/10/14 04:34:48;;;;;;;13.43;8.97;;;;;;;5.16;100.00;99452.78;5051967;28;20036;-61
2021/10/14 04:37:14;;;;;;;9.83;7.37;;;;;;;5.16;100.00;99460.41;5047099;28;20438;-61
2021/10/14 04:39:40;;;;;;;11.67;7.57;;;;;;;5.11;100.00;99450.16;5051057;28;20033;-60
2021/10/14 04:42:07;;;;;;;10.97;7.53;;;;;;;5.17;100.00;99459.59;5051402;28;20031;-61
2021/10/14 04:44:33;;;;;;;9.93;7.17;;;;;;;5.10;100.00;99461.16;5048996;28;20483;-59
2021/10/14 04:47:02;;;;;;;8.93;6.53;;;;;;;5.18;100.00;99467.22;5039661;28;20119;-61
2021/10/14 04:49:27;;;;;;;10.83;7.57;;;;;;;5.09;100.00;99474.72;5046987;28;20512;-60
2021/10/14 04:51:53;;;;;;;10.63;7.37;;;;;;;5.12;100.00;99466.28;5048783;28;20112;-56
2021/10/14 04:54:18;;;;;;;12.23;8.00;;;;;;;5.09;100.00;99462.00;5046495;28;20040;-60
2021/10/14 04:56:43;;;;;;;12.03;7.90;;;;;;;5.09;100.00;99468.78;5043315;28;20105;-56
2021/10/14 04:59:09;;;;;;;8.27;6.43;;;;;;;5.08;100.00;99470.47;5048057;28;20037;-60
2021/10/14 05:01:34;;;;;;;10.53;7.27;;;;;;;5.05;100.00;99472.94;5046065;28;20501;-59
2021/10/14 05:03:59;;;;;;;8.30;7.10;;;;;;;5.18;100.00;99476.56;5047821;28;20090;-59
2021/10/14 05:06:25;;;;;;;9.60;6.63;;;;;;;5.17;100.00;99468.06;5042103;28;20107;-60
2021/10/14 05:08:50;;;;;;;10.40;6.87;;;;;;;5.19;100.00;99474.03;5046440;28;20159;-60
2021/10/14 05:11:16;;;;;;;11.73;8.20;;;;;;;5.23;100.00;99474.91;5046490;28;20047;-55
2021/10/14 05:13:41;;;;;;;9.93;5.80;;;;;;;5.34;100.00;99479.34;5047165;28;20068;-60
2021/10/14 05:16:07;;;;;;;15.70;7.50;;;;;;;5.36;100.00;99476.81;5052919;28;20224;-60
2021/10/14 05:18:32;;;;;;;11.30;7.93;;;;;;;5.36;100.00;99482.75;5045329;28;20033;-60
2021/10/14 05:20:58;;;;;;;10.87;7.47;;;;;;;5.40;100.00;99484.53;5050614;28;20456;-58
2021/10/14 05:23:24;;;;;;;10.50;7.10;;;;;;;5.33;100.00;99486.94;5048044;28;20031;-56
2021/10/14 05:25:49;;;;;;;11.50;7.80;;;;;;;5.38;100.00;99485.34;5048468;28;20117;-56
2021/10/14 05:28:15;;;;;;;12.00;7.30;;;;;;;5.41;100.00;99486.25;5046226;28;20037;-57
2021/10/14 05:30:41;;;;;;;9.93;6.87;;;;;;;5.46;100.00;99484.63;5041894;28;20080;-57
2021/10/14 05:33:06;;;;;;;7.57;6.23;;;;;;;5.54;100.00;99494.91;5046314;28;20025;-58
2021/10/14 05:35:32;;;;;;;9.57;6.47;;;;;;;5.65;100.00;99492.50;5046079;28;20044;-56
2021/10/14 05:37:58;;;;;;;8.47;6.30;;;;;;;5.68;100.00;99492.56;5042987;28;20041;-57
2021/10/14 05:40:23;;;;;;;7.10;5.83;;;;;;;5.74;100.00;99497.72;5041389;28;20055;-54
2021/10/14 05:42:48;;;;;;;8.03;6.20;;;;;;;5.79;100.00;99491.88;5040315;28;20053;-59
2021/10/14 05:45:14;;;;;;;9.53;7.23;;;;;;;5.86;100.00;99490.25;5044448;28;20363;-58
2021/10/14 05:47:40;;;;;;;9.47;6.20;;;;;;;5.96;100.00;99490.44;5045661;28;20073;-61
2021/10/14 05:50:06;;;;;;;7.80;6.03;;;;;;;6.03;100.00;99501.53;5079505;28;20025;-61
2021/10/14 05:52:32;;;;;;;8.03;5.63;;;;;;;6.11;100.00;99502.50;5044125;28;20032;-61
2021/10/14 05:54:59;;;;;;;7.80;5.00;;;;;;;6.12;100.00;99501.66;5046324;28;20384;-60
2021/10/14 05:57:25;;;;;;;6.53;5.83;;;;;;;6.14;100.00;99506.78;5047046;28;20029;-61
2021/10/14 05:59:51;;;;;;;10.43;6.17;;;;;;;6.13;100.00;99511.03;5049519;28;20033;-61
2021/10/14 06:02:16;;;;;;;6.40;5.60;;;;;;;6.10;100.00;99507.59;5043908;28;20560;-61
2021/10/14 06:04:42;;;;;;;9.20;6.33;;;;;;;6.09;100.00;99504.19;5044966;28;20043;-62
2021/10/14 06:07:08;;;;;;;7.40;5.33;;;;;;;6.11;100.00;99502.50;5047346;28;20074;-62
2021/10/14 06:09:33;;;;;;;8.27;5.63;;;;;;;6.13;100.00;99502.53;5043068;28;20363;-61
2021/10/14 06:11:58;;;;;;;8.50;5.43;;;;;;;6.18;100.00;99508.53;5041377;28;20141;-60
2021/10/14 06:14:24;;;;;;;6.57;4.93;;;;;;;6.32;100.00;99512.94;5043793;28;20549;-61
2021/10/14 06:16:49;;;;;;;7.37;5.63;;;;;;;6.39;100.00;99508.78;5046686;28;20121;-60
2021/10/14 06:19:14;;;;;;;6.40;4.90;;;;;;;6.49;100.00;99508.09;5043552;28;20455;-61
2021/10/14 06:21:40;;;;;;;6.37;4.50;;;;;;;6.55;100.00;99508.13;5043376;28;20423;-61
2021/10/14 06:24:05;;;;;;;7.53;5.70;;;;;;;6.69;100.00;99510.84;5043169;28;20029;-59
2021/10/14 06:26:31;;;;;;;6.90;4.77;;;;;;;6.73;100.00;99512.56;5046672;28;20085;-61
2021/10/14 06:28:57;;;;;;;7.47;5.07;;;;;;;6.83;100.00;99515.22;5043022;28;20068;-60
2021/10/14 06:31:22;;;;;;;5.60;4.60;;;;;;;6.89;100.00;99507.66;5044100;28;20079;-61
2021/10/14 06:33:48;;;;;;;5.60;4.17;;;;;;;6.96;100.00;99521.28;5044112;28;20455;-59
2021/10/14 06:36:13;;;;;;;7.47;5.00;;;;;;;7.01;100.00;99508.59;5046304;28;20032;-60
2021/10/14 06:38:38;;;;;;;6.73;4.97;;;;;;;6.98;100.00;99516.22;5043729;28;20540;-62
2021/10/14 06:41:04;;;;;;;5.13;4.03;;;;;;;7.12;100.00;99507.88;5039656;28;20442;-60
2021/10/14 06:43:29;;;;;;;6.20;4.67;;;;;;;7.16;100.00;99511.28;5042719;28;20503;-61
2021/10/14 06:45:55;;;;;;;7.40;4.43;;;;;;;7.24;100.00;99515.63;5046072;28;20191;-61
2021/10/14 06:48:20;;;;;;;4.83;4.30;;;;;;;7.33;100.00;99510.59;5044695;28;20028;-62
2021/10/14 06:50:46;;;;;;;4.57;4.17;;;;;;;7.41;100.00;99503.00;5043315;28;20094;-60
2021/10/14 06:53:13;;;;;;;6.73;4.77;;;;;;;7.48;100.00;99514.94;5045799;28;20032;-62
2021/10/14 06:55:40;;;;;;;5.83;4.70;;;;;;;7.59;100.00;99507.38;5047258;28;20025;-61
2021/10/14 06:58:05;;;;;;;6.47;4.77;;;;;;;7.72;100.00;99510.00;5042308;28;20047;-61
2021/10/14 07:00:31;;;;;;;6.87;5.17;;;;;;;7.79;100.00;99511.78;5043451;28;20471;-60
2021/10/14 07:02:56;;;;;;;5.77;4.43;;;;;;;7.69;100.00;99517.66;5043540;28;20055;-61
2021/10/14 07:05:22;;;;;;;5.50;4.70;;;;;;;7.71;100.00;99527.88;5046270;28;20887;-61
2021/10/14 07:07:47;;;;;;;8.63;5.30;;;;;;;7.70;100.00;99523.59;5040904;28;20035;-60
2021/10/14 07:10:15;;;;;;;5.80;5.07;;;;;;;7.68;100.00;99527.88;5041491;28;20028;-61
2021/10/14 07:12:41;;;;;;;5.57;4.20;;;;;;;7.83;100.00;99525.41;5043940;28;20372;-60
2021/10/14 07:15:08;;;;;;;7.63;5.23;;;;;;;7.93;100.00;99534.84;5045435;28;20037;-60
2021/10/14 07:17:34;;;;;;;7.37;4.47;;;;;;;7.97;100.00;99538.25;5042496;28;20083;-60
2021/10/14 07:19:59;;;;;;;7.27;4.90;;;;;;;7.79;100.00;99547.50;5043222;28;20029;-61
2021/10/14 07:22:25;;;;;;;6.00;4.80;;;;;;;7.90;100.00;99537.34;5046512;28;20028;-61
2021/10/14 07:24:50;;;;;;;8.83;5.33;;;;;;;7.75;100.00;99547.47;5045560;28;20067;-60
2021/10/14 07:27:16;;;;;;;6.80;4.07;;;;;;;7.76;100.00;99551.75;5042346;28;20065;-60
2021/10/14 07:29:41;;;;;;;6.27;4.77;;;;;;;7.84;100.00;99555.19;5045289;28;20036;-60
2021/10/14 07:32:06;;;;;;;7.13;4.53;;;;;;;8.01;100.00;99553.59;5043681;28;20421;-54
2021/10/14 07:34:36;;;;;;;6.43;4.77;;;;;;;8.22;100.00;99547.75;5046626;28;20036;-58
2021/10/14 07:37:03;;;;;;;6.50;4.90;;;;;;;8.40;100.00;99547.03;5047368;28;20028;-57
2021/10/14 07:39:29;;;;;;;11.07;5.30;;;;;;;8.59;100.00;99542.00;5048096;28;20533;-57
2021/10/14 07:41:54;;;;;;;6.00;3.97;;;;;;;8.51;100.00;99545.38;5046051;28;20119;-58
2021/10/14 07:44:20;;;;;;;7.73;4.43;;;;;;;8.47;100.00;99546.19;5045756;28;20467;-57
2021/10/14 07:46:45;;;;;;;6.73;4.40;;;;;;;8.58;100.00;99547.09;5046167;28;20034;-58
2021/10/14 07:49:12;;;;;;;7.83;5.17;;;;;;;8.70;100.00;99545.41;5046156;28;20025;-57
2021/10/14 07:51:38;;;;;;;5.37;4.70;;;;;;;8.74;100.00;99536.09;5048265;28;20028;-55
2021/10/14 07:54:05;;;;;;;6.63;4.90;;;;;;;8.82;100.00;99536.09;5051506;28;20032;-57
2021/10/14 07:56:31;;;;;;;10.23;4.17;;;;;;;8.93;100.00;99521.63;5043573;28;20065;-58
2021/10/14 07:58:57;;;;;;;5.80;3.93;;;;;;;8.98;100.00;99540.38;5045832;28;20143;-54
2021/10/14 08:01:22;;;;;;;9.20;5.00;;;;;;;9.05;100.00;99531.88;5047401;28;20034;-58
2021/10/14 08:03:48;;;;;;;5.27;4.67;;;;;;;9.19;100.00;99537.88;5045238;28;20052;-55
2021/10/14 08:06:14;;;;;;;5.67;4.90;;;;;;;9.38;100.00;99544.69;5044892;28;20039;-57
2021/10/14 08:08:40;;;;;;;9.00;4.80;;;;;;;9.43;100.00;99539.56;5049250;28;20052;-53
2021/10/14 08:11:06;;;;;;;6.53;4.03;;;;;;;9.57;100.00;99531.06;5046910;28;20033;-58
2021/10/14 08:13:31;;;;;;;7.13;4.60;;;;;;;9.30;100.00;99536.16;5046075;28;20032;-57
2021/10/14 08:15:57;;;;;;;4.47;3.93;;;;;;;9.40;100.00;99532.75;5042862;28;20072;-58
2021/10/14 08:18:23;;;;;;;7.73;4.27;;;;;;;9.33;100.00;99541.31;5045037;28;20029;-58
2021/10/14 08:20:50;;;;;;;5.90;5.03;;;;;;;9.23;100.00;99534.47;5046660;28;20036;-58
2021/10/14 08:23:17;;;;;;;6.50;4.03;;;;;;;8.98;100.00;99533.56;5043787;28;20029;-60
2021/10/14 08:25:43;;;;;;;10.27;4.87;;;;;;;9.05;100.00;99532.72;5049808;28;20386;-57
2021/10/14 08:28:08;;;;;;;9.03;4.67;;;;;;;9.10;100.00;99532.72;5046145;28;20030;-55
2021/10/14 08:30:34;;;;;;;7.47;4.90;;;;;;;9.10;100.00;99525.06;5044334;28;20085;-57
2021/10/14 08:32:59;;;;;;;4.57;3.97;;;;;;;9.22;100.00;99542.97;5048744;28;20090;-60
2021/10/14 08:35:25;;;;;;;7.37;4.70;;;;;;;9.17;100.00;99529.31;5047593;28;20028;-57
2021/10/14 08:37:50;;;;;;;7.47;4.80;;;;;;;9.14;100.00;99534.44;5045281;28;20197;-57
2021/10/14 08:40:16;;;;;;;5.83;4.40;;;;;;;9.23;100.00;99549.81;5044582;28;20025;-55
2021/10/14 08:42:43;;;;;;;7.60;5.00;;;;;;;9.25;100.00;99537.84;5048755;28;20303;-56
2021/10/14 08:45:11;;;;;;;7.67;4.90;;;;;;;9.28;100.00;99527.66;5047698;28;20038;-53
2021/10/14 08:47:38;;;;;;;7.27;4.60;;;;;;;9.41;100.00;99523.38;5043758;28;20359;-57
2021/10/14 08:50:06;;;;;;;5.93;4.97;;;;;;;9.56;100.00;99536.16;5040638;28;20095;-54
2021/10/14 08:52:31;;;;;;;11.17;6.30;;;;;;;9.60;100.00;99530.19;5049924;28;20032;-57
2021/10/14 08:54:57;;;;;;;6.77;4.50;;;;;;;9.60;100.00;99522.50;5049156;28;20042;-53
2021/10/14 08:57:23;;;;;;;6.13;4.73;;;;;;;9.84;100.00;99519.94;5046105;28;20039;-54
2021/10/14 08:59:49;;;;;;;7.77;4.70;;;;;;;9.90;100.00;99521.59;5046896;28;20047;-57
2021/10/14 09:02:17;;;;;;;8.70;5.47;;;;;;;9.93;99.14;99532.69;5047286;28;20029;-57
2021/10/14 09:04:58;;;;;;;5.03;4.07;;;;;;;10.11;99.77;99526.69;5048144;28;20060;-58
2021/10/14 09:07:27;;;;;;;4.60;4.10;;;;;;;10.26;99.56;99519.00;5044769;28;20543;-57
2021/10/14 09:09:54;;;;;;;7.30;4.43;;;;;;;10.21;98.58;99527.56;5046689;28;20048;-59
2021/10/14 09:12:22;;;;;;;4.43;3.95;;;;;;;10.27;97.82;99522.41;5050310;28;20050;-56
2021/10/14 09:15:03;;;;;;;5.85;4.18;;;;;;;10.46;97.38;99519.75;5047647;28;20025;-59
2021/10/14 09:17:38;;;;;;;4.93;4.05;;;;;;;10.54;96.00;99519.72;5045352;28;20029;-55
2021/10/14 09:20:25;;;;;;;5.03;3.85;;;;;;;10.46;97.84;99532.59;5044378;28;20047;-54
2021/10/14 09:23:07;;;;;;;5.68;4.18;;;;;;;10.21;98.10;99528.41;5048585;28;20032;-59
2021/10/14 09:25:42;;;;;;;5.13;4.15;;;;;;;10.21;99.31;99542.91;5040982;28;20529;-58
2021/10/14 09:28:21;;;;;;;4.18;3.75;;;;;;;10.23;97.55;99541.19;5044348;28;20055;-59
2021/10/14 09:30:59;;;;;;;5.60;4.35;;;;;;;10.30;97.59;99541.19;5046376;28;20033;-57
2021/10/14 09:33:28;;;;;;;6.38;4.60;;;;;;;10.33;97.14;99523.22;5045669;28;20045;-54
2021/10/14 09:35:54;;;;;;;5.00;4.43;;;;;;;10.27;95.83;99537.78;5046456;28;20032;-56
2021/10/14 09:38:31;;;;;;;6.80;4.78;;;;;;;10.26;95.74;99519.00;5045578;28;20033;-53
2021/10/14 09:41:04;;;;;;;6.13;4.82;;;;;;;10.29;97.67;99518.97;5046873;28;20068;-56
2021/10/14 09:43:30;;;;;;;4.00;3.42;;;;;;;10.41;96.37;99516.38;5046234;28;20550;-57
2021/10/14 09:45:55;;;;;;;5.45;3.92;;;;;;;10.48;96.80;99512.06;5047410;28;20036;-58
2021/10/14 09:48:21;;;;;;;4.70;3.47;;;;;;;10.75;94.39;99529.88;5045674;28;20041;-57
2021/10/14 09:50:48;;;;;;;3.60;3.30;;;;;;;11.05;91.38;99517.72;5047786;28;20070;-58
2021/10/14 09:53:17;;;;;;;4.60;3.50;;;;;;;10.80;87.10;99527.28;5044101;28;20505;-60
2021/10/14 09:55:44;;;;;;;3.28;2.97;;;;;;;10.53;88.61;99534.25;5041788;28;20047;-59
2021/10/14 09:58:10;;;;;;;3.72;3.35;;;;;;;10.30;90.57;99525.81;5046406;28;20406;-59
2021/10/14 10:00:37;;;;;;;3.23;2.83;;;;;;;10.21;92.01;99518.16;5046824;28;20039;-60
2021/10/14 10:03:08;;;;;;;4.10;2.90;;;;;;;10.35;91.91;99523.25;5044940;28;20111;-60
2021/10/14 10:05:35;;;;;;;6.35;2.83;;;;;;;10.45;91.22;99517.19;5075161;28;20054;-58
2021/10/14 10:08:26;;;;;;;4.57;3.60;;;;;;;10.49;92.18;99524.88;5050445;28;20041;-59
2021/10/14 10:10:54;;;;;;;4.53;2.40;;;;;;;10.61;90.65;99520.56;5044851;28;20438;-57
2021/10/14 10:13:20;;;;;;;4.95;3.00;;;;;;;10.44;89.83;99530.88;5047058;28;20048;-60
2021/10/14 10:15:49;;;;;;;3.20;2.90;;;;;;;10.54;89.51;99527.41;5047948;28;20048;-59
2021/10/14 10:18:26;;;;;;;2.60;2.40;;;;;;;10.59;89.96;99512.00;5048043;28;20033;-59
2021/10/14 10:20:56;;;;;;;4.10;2.97;;;;;;;10.53;89.24;99510.31;5046599;28;20509;-60
2021/10/14 10:23:43;;;;;;;3.05;2.70;;;;;;;10.66;86.08;99505.97;5043518;28;20119;-58
2021/10/14 10:26:36;;;;;;;3.30;2.72;;;;;;;10.54;86.63;99512.88;5044898;28;20112;-60
2021/10/14 10:29:19;;;;;;;2.90;2.25;;;;;;;10.46;87.88;99508.66;5042498;28;20428;-59
2021/10/14 10:31:51;;;;;;;2.78;2.50;;;;;;;10.62;87.40;99506.84;5043614;28;20033;-60
2021/10/14 10:34:48;;;;;;;1.88;1.77;;;;;;;10.70;86.81;99500.81;5041670;28;20390;-56
2021/10/14 10:37:42;;;;;;;3.15;1.58;;;;;;;10.86;86.66;99499.06;5047446;28;20025;-59
2021/10/14 10:40:13;;;;;;;2.03;1.52;;;;;;;10.90;86.91;99488.75;5043133;28;20039;-59
2021/10/14 10:43:02;;;;;;;1.30;1.30;;;;;;;10.91;85.32;99475.03;5041492;28;20511;-59
2021/10/14 10:45:41;;;;;;;1.73;1.50;;;;;;;10.73;86.09;99495.69;5043030;28;20032;-58
2021/10/14 10:48:07;;;;;;;1.90;1.30;;;;;;;10.81;88.61;99490.53;5045572;28;20656;-60
2021/10/14 10:50:32;;;;;;;1.48;1.38;;;;;;;10.48;88.27;99494.13;5041490;28;20090;-58
2021/10/14 10:53:04;;;;;;;1.67;1.58;;;;;;;10.40;91.71;99491.56;5040521;28;20032;-60
2021/10/14 10:55:38;;;;;;;1.50;1.40;;;;;;;10.64;90.89;99500.88;5044346;28;20397;-60
2021/10/14 10:58:07;;;;;;;1.67;1.58;;;;;;;10.49;89.58;99480.44;5044982;28;20049;-58
2021/10/14 11:00:34;;;;;;;1.20;1.10;;;;;;;10.41;87.98;99488.16;5041515;28;20036;-60
2021/10/14 11:03:10;;;;;;;1.00;1.00;;;;;;;10.66;87.42;99504.28;5042557;28;20059;-60
2021/10/14 11:05:51;;;;;;;1.30;1.25;;;;;;;10.39;88.19;99487.34;5044644;28;20387;-59
2021/10/14 11:08:21;;;;;;;1.30;1.30;;;;;;;10.48;87.18;99494.94;5043392;28;20402;-60
2021/10/14 11:10:50;;;;;;;1.10;0.95;;;;;;;10.40;90.07;99494.16;5041759;28;20074;-59
2021/10/14 11:13:15;;;;;;;1.50;1.05;;;;;;;10.20;90.04;99480.56;5044383;28;20079;-58
2021/10/14 11:15:45;;;;;;;1.00;1.00;;;;;;;10.19;93.16;99489.09;5043776;28;20578;-59
2021/10/14 11:18:11;;;;;;;2.67;1.40;;;;;;;10.45;91.33;99486.44;5039654;28;20029;-57
2021/10/14 11:20:36;;;;;;;3.78;1.40;;;;;;;10.61;90.51;99482.09;5043190;28;20438;-59
2021/10/14 11:23:06;;;;;;;1.67;1.58;;;;;;;10.70;91.38;99470.06;5045550;28;20368;-53
2021/10/14 11:25:32;;;;;;;2.92;1.63;;;;;;;10.66;91.00;99463.25;5045210;28;20036;-59
2021/10/14 11:28:07;;;;;;;1.38;1.30;;;;;;;10.80;88.20;99468.28;5042220;28;20036;-59
2021/10/14 11:30:45;;;;;;;1.63;1.52;;;;;;;10.85;88.81;99464.00;5044010;28;20368;-56